sensor_id;sensor_type;location;lat;lon;timestamp;P1;durP1;ratioP1;P2;durP2;ratioP2
37657;SDS011;23500;53.268;8.308;2023-04-01T00:01:55;1.10;;;1.00;;
37657;SDS011;23500;53.268;8.308;2023-04-01T00:04:21;1.25;;;1.15;;
37657;SDS011;23500;53.268;8.308;2023-04-01T00:06:47;0.80;;;0.80;;
37657;SDS011;23500;53.268;8.308;2023-04-01T00:09:13;1.20;;;1.10;;
37657;SDS011;23500;53.268;8.308;2023-04-01T00:11:39;0.90;;;0.90;;
37657;SDS011;23500;53.268;8.308;2023-04-01T00:14:05;1.02;;;1.00;;
37657;SDS011;23500;53.268;8.308;2023-04-01T00:16:32;1.13;;;1.02;;
37657;SDS011;23500;53.268;8.308;2023-04-01T00:18:57;1.20;;;1.02;;
37657;SDS011;23500;53.268;8.308;2023-04-01T00:21:24;1.20;;;1.10;;
37657;SDS011;23500;53.268;8.308;2023-04-01T00:23:50;1.27;;;1.10;;
37657;SDS011;23500;53.268;8.308;2023-04-01T00:26:16;0.98;;;0.90;;
37657;SDS011;23500;53.268;8.308;2023-04-01T00:28:45;1.42;;;1.10;;
37657;SDS011;23500;53.268;8.308;2023-04-01T00:31:11;1.10;;;1.10;;
37657;SDS011;23500;53.268;8.308;2023-04-01T00:33:38;1.20;;;1.10;;
37657;SDS011;23500;53.268;8.308;2023-04-01T00:36:12;0.93;;;0.85;;
37657;SDS011;23500;53.268;8.308;2023-04-01T00:38:40;1.15;;;1.05;;
37657;SDS011;23500;53.268;8.308;2023-04-01T00:41:08;1.23;;;1.13;;
37657;SDS011;23500;53.268;8.308;2023-04-01T00:43:39;1.40;;;1.17;;
37657;SDS011;23500;53.268;8.308;2023-04-01T00:46:05;1.10;;;1.00;;
37657;SDS011;23500;53.268;8.308;2023-04-01T00:48:33;1.13;;;1.00;;
37657;SDS011;23500;53.268;8.308;2023-04-01T00:54:00;1.20;;;1.10;;
37657;SDS011;23500;53.268;8.308;2023-04-01T00:59:13;1.10;;;1.00;;
37657;SDS011;23500;53.268;8.308;2023-04-01T01:01:41;1.30;;;1.10;;
37657;SDS011;23500;53.268;8.308;2023-04-01T01:04:07;1.20;;;1.10;;
37657;SDS011;23500;53.268;8.308;2023-04-01T01:09:34;1.20;;;1.10;;
37657;SDS011;23500;53.268;8.308;2023-04-01T01:15:17;0.95;;;0.95;;
37657;SDS011;23500;53.268;8.308;2023-04-01T01:28:44;1.25;;;1.00;;
37657;SDS011;23500;53.268;8.308;2023-04-01T01:34:24;0.82;;;0.82;;
37657;SDS011;23500;53.268;8.308;2023-04-01T01:37:13;1.10;;;1.00;;
37657;SDS011;23500;53.268;8.308;2023-04-01T01:39:44;1.38;;;1.27;;
37657;SDS011;23500;53.268;8.308;2023-04-01T01:42:15;1.30;;;1.20;;
37657;SDS011;23500;53.268;8.308;2023-04-01T01:44:44;1.10;;;1.00;;
37657;SDS011;23500;53.268;8.308;2023-04-01T01:47:12;1.27;;;1.17;;
37657;SDS011;23500;53.268;8.308;2023-04-01T01:49:40;0.80;;;0.80;;
37657;SDS011;23500;53.268;8.308;2023-04-01T01:52:08;1.10;;;1.10;;
37657;SDS011;23500;53.268;8.308;2023-04-01T01:54:35;1.20;;;1.10;;
37657;SDS011;23500;53.268;8.308;2023-04-01T01:57:07;1.38;;;1.27;;
37657;SDS011;23500;53.268;8.308;2023-04-01T01:59:35;1.52;;;1.15;;
37657;SDS011;23500;53.268;8.308;2023-04-01T02:02:04;1.20;;;1.15;;
37657;SDS011;23500;53.268;8.308;2023-04-01T02:04:37;2.55;;;1.10;;
37657;SDS011;23500;53.268;8.308;2023-04-01T02:07:07;1.27;;;1.17;;
37657;SDS011;23500;53.268;8.308;2023-04-01T02:09:38;1.33;;;1.08;;
37657;SDS011;23500;53.268;8.308;2023-04-01T02:12:05;1.00;;;1.00;;
37657;SDS011;23500;53.268;8.308;2023-04-01T02:14:52;1.17;;;1.08;;
37657;SDS011;23500;53.268;8.308;2023-04-01T02:17:21;1.10;;;1.10;;
37657;SDS011;23500;53.268;8.308;2023-04-01T02:20:02;1.17;;;1.15;;
37657;SDS011;23500;53.268;8.308;2023-04-01T02:23:09;1.33;;;1.10;;
37657;SDS011;23500;53.268;8.308;2023-04-01T02:25:29;1.20;;;1.10;;
37657;SDS011;23500;53.268;8.308;2023-04-01T02:27:59;1.10;;;1.00;;
37657;SDS011;23500;53.268;8.308;2023-04-01T02:30:26;0.90;;;0.90;;
37657;SDS011;23500;53.268;8.308;2023-04-01T02:32:54;0.93;;;0.88;;
37657;SDS011;23500;53.268;8.308;2023-04-01T02:35:21;1.00;;;1.00;;
37657;SDS011;23500;53.268;8.308;2023-04-01T02:37:48;1.00;;;1.00;;
37657;SDS011;23500;53.268;8.308;2023-04-01T02:40:15;0.90;;;0.90;;
37657;SDS011;23500;53.268;8.308;2023-04-01T02:42:41;1.20;;;1.10;;
37657;SDS011;23500;53.268;8.308;2023-04-01T02:45:08;1.05;;;1.00;;
37657;SDS011;23500;53.268;8.308;2023-04-01T02:47:34;1.00;;;1.00;;
37657;SDS011;23500;53.268;8.308;2023-04-01T02:50:00;1.20;;;1.10;;
37657;SDS011;23500;53.268;8.308;2023-04-01T02:52:26;1.30;;;1.20;;
37657;SDS011;23500;53.268;8.308;2023-04-01T02:54:52;1.20;;;1.10;;
37657;SDS011;23500;53.268;8.308;2023-04-01T02:57:18;1.00;;;1.00;;
37657;SDS011;23500;53.268;8.308;2023-04-01T02:59:44;1.00;;;1.00;;
37657;SDS011;23500;53.268;8.308;2023-04-01T03:02:09;0.90;;;0.90;;
37657;SDS011;23500;53.268;8.308;2023-04-01T03:04:35;1.35;;;1.25;;
37657;SDS011;23500;53.268;8.308;2023-04-01T03:07:01;1.08;;;1.00;;
37657;SDS011;23500;53.268;8.308;2023-04-01T03:09:27;0.85;;;0.85;;
37657;SDS011;23500;53.268;8.308;2023-04-01T03:11:53;1.02;;;1.00;;
37657;SDS011;23500;53.268;8.308;2023-04-01T03:14:19;1.30;;;1.20;;
37657;SDS011;23500;53.268;8.308;2023-04-01T03:16:45;1.00;;;0.80;;
37657;SDS011;23500;53.268;8.308;2023-04-01T03:19:10;1.08;;;1.08;;
37657;SDS011;23500;53.268;8.308;2023-04-01T03:21:36;0.90;;;0.90;;
37657;SDS011;23500;53.268;8.308;2023-04-01T03:24:02;1.00;;;1.00;;
37657;SDS011;23500;53.268;8.308;2023-04-01T03:26:28;1.00;;;1.00;;
37657;SDS011;23500;53.268;8.308;2023-04-01T03:28:54;0.80;;;0.80;;
37657;SDS011;23500;53.268;8.308;2023-04-01T03:31:20;1.20;;;1.10;;
37657;SDS011;23500;53.268;8.308;2023-04-01T03:33:46;1.20;;;1.10;;
37657;SDS011;23500;53.268;8.308;2023-04-01T03:36:12;1.15;;;1.05;;
37657;SDS011;23500;53.268;8.308;2023-04-01T03:38:38;1.00;;;0.95;;
37657;SDS011;23500;53.268;8.308;2023-04-01T03:41:07;1.15;;;1.05;;
37657;SDS011;23500;53.268;8.308;2023-04-01T03:43:37;1.20;;;1.10;;
37657;SDS011;23500;53.268;8.308;2023-04-01T03:46:02;1.10;;;1.00;;
37657;SDS011;23500;53.268;8.308;2023-04-01T03:48:28;0.73;;;0.73;;
37657;SDS011;23500;53.268;8.308;2023-04-01T03:50:54;0.90;;;0.90;;
37657;SDS011;23500;53.268;8.308;2023-04-01T03:53:20;1.20;;;1.13;;
37657;SDS011;23500;53.268;8.308;2023-04-01T03:55:46;1.17;;;1.08;;
37657;SDS011;23500;53.268;8.308;2023-04-01T03:58:12;1.05;;;1.00;;
37657;SDS011;23500;53.268;8.308;2023-04-01T04:00:37;1.27;;;1.10;;
37657;SDS011;23500;53.268;8.308;2023-04-01T04:03:03;1.13;;;1.00;;
37657;SDS011;23500;53.268;8.308;2023-04-01T04:05:30;1.27;;;1.17;;
37657;SDS011;23500;53.268;8.308;2023-04-01T04:07:56;0.80;;;0.80;;
37657;SDS011;23500;53.268;8.308;2023-04-01T04:10:21;1.27;;;1.13;;
37657;SDS011;23500;53.268;8.308;2023-04-01T04:12:49;1.20;;;1.10;;
37657;SDS011;23500;53.268;8.308;2023-04-01T04:15:15;1.00;;;1.00;;
37657;SDS011;23500;53.268;8.308;2023-04-01T04:17:40;1.35;;;1.10;;
37657;SDS011;23500;53.268;8.308;2023-04-01T04:20:06;1.08;;;1.00;;
37657;SDS011;23500;53.268;8.308;2023-04-01T04:22:33;1.15;;;1.05;;
37657;SDS011;23500;53.268;8.308;2023-04-01T04:24:58;1.00;;;1.00;;
37657;SDS011;23500;53.268;8.308;2023-04-01T04:27:24;1.05;;;1.00;;
37657;SDS011;23500;53.268;8.308;2023-04-01T04:29:50;1.17;;;1.08;;
37657;SDS011;23500;53.268;8.308;2023-04-01T04:32:15;1.17;;;1.10;;
37657;SDS011;23500;53.268;8.308;2023-04-01T04:34:41;1.20;;;1.10;;
37657;SDS011;23500;53.268;8.308;2023-04-01T04:37:06;1.20;;;0.90;;
37657;SDS011;23500;53.268;8.308;2023-04-01T04:39:32;0.93;;;0.90;;
37657;SDS011;23500;53.268;8.308;2023-04-01T04:41:58;1.05;;;1.00;;
37657;SDS011;23500;53.268;8.308;2023-04-01T04:44:23;0.80;;;0.80;;
37657;SDS011;23500;53.268;8.308;2023-04-01T04:46:49;1.00;;;1.00;;
37657;SDS011;23500;53.268;8.308;2023-04-01T04:49:15;1.10;;;1.10;;
37657;SDS011;23500;53.268;8.308;2023-04-01T04:51:40;0.80;;;0.80;;
37657;SDS011;23500;53.268;8.308;2023-04-01T04:54:06;1.10;;;1.10;;
37657;SDS011;23500;53.268;8.308;2023-04-01T04:56:32;0.90;;;0.90;;
37657;SDS011;23500;53.268;8.308;2023-04-01T04:58:58;0.90;;;0.90;;
37657;SDS011;23500;53.268;8.308;2023-04-01T05:01:24;1.00;;;1.00;;
37657;SDS011;23500;53.268;8.308;2023-04-01T05:03:50;1.23;;;1.00;;
37657;SDS011;23500;53.268;8.308;2023-04-01T05:06:16;1.00;;;1.00;;
37657;SDS011;23500;53.268;8.308;2023-04-01T05:08:43;0.90;;;0.90;;
37657;SDS011;23500;53.268;8.308;2023-04-01T05:11:12;1.10;;;1.10;;
37657;SDS011;23500;53.268;8.308;2023-04-01T05:13:39;1.30;;;1.20;;
37657;SDS011;23500;53.268;8.308;2023-04-01T05:16:07;1.00;;;1.00;;
37657;SDS011;23500;53.268;8.308;2023-04-01T05:18:38;0.90;;;0.90;;
37657;SDS011;23500;53.268;8.308;2023-04-01T05:21:04;0.95;;;0.95;;
37657;SDS011;23500;53.268;8.308;2023-04-01T05:23:31;1.00;;;1.00;;
37657;SDS011;23500;53.268;8.308;2023-04-01T05:25:58;1.25;;;1.15;;
37657;SDS011;23500;53.268;8.308;2023-04-01T05:28:27;1.00;;;1.00;;
37657;SDS011;23500;53.268;8.308;2023-04-01T05:30:52;0.93;;;0.93;;
37657;SDS011;23500;53.268;8.308;2023-04-01T05:33:18;1.05;;;1.05;;
37657;SDS011;23500;53.268;8.308;2023-04-01T05:35:44;1.25;;;1.15;;
37657;SDS011;23500;53.268;8.308;2023-04-01T05:38:09;1.25;;;1.15;;
37657;SDS011;23500;53.268;8.308;2023-04-01T05:40:35;0.98;;;0.98;;
37657;SDS011;23500;53.268;8.308;2023-04-01T05:43:01;1.00;;;0.90;;
37657;SDS011;23500;53.268;8.308;2023-04-01T05:45:27;1.00;;;1.00;;
37657;SDS011;23500;53.268;8.308;2023-04-01T05:47:52;1.20;;;1.10;;
37657;SDS011;23500;53.268;8.308;2023-04-01T05:50:18;1.10;;;1.00;;
37657;SDS011;23500;53.268;8.308;2023-04-01T05:52:44;1.02;;;1.00;;
37657;SDS011;23500;53.268;8.308;2023-04-01T05:55:10;1.23;;;1.13;;
37657;SDS011;23500;53.268;8.308;2023-04-01T05:57:36;0.90;;;0.90;;
37657;SDS011;23500;53.268;8.308;2023-04-01T06:00:02;0.98;;;0.98;;
37657;SDS011;23500;53.268;8.308;2023-04-01T06:02:29;0.98;;;0.98;;
37657;SDS011;23500;53.268;8.308;2023-04-01T06:04:58;0.90;;;0.90;;
37657;SDS011;23500;53.268;8.308;2023-04-01T06:08:28;1.10;;;1.00;;
37657;SDS011;23500;53.268;8.308;2023-04-01T06:11:07;1.00;;;1.00;;
37657;SDS011;23500;53.268;8.308;2023-04-01T06:16:48;1.23;;;1.13;;
37657;SDS011;23500;53.268;8.308;2023-04-01T06:19:35;1.25;;;1.15;;
37657;SDS011;23500;53.268;8.308;2023-04-01T06:30:58;1.20;;;0.98;;
37657;SDS011;23500;53.268;8.308;2023-04-01T06:42:05;1.08;;;0.98;;
37657;SDS011;23500;53.268;8.308;2023-04-01T06:47:46;1.20;;;1.10;;
37657;SDS011;23500;53.268;8.308;2023-04-01T06:56:18;1.00;;;1.00;;
37657;SDS011;23500;53.268;8.308;2023-04-01T07:01:42;1.02;;;1.02;;
37657;SDS011;23500;53.268;8.308;2023-04-01T07:04:29;1.17;;;1.10;;
37657;SDS011;23500;53.268;8.308;2023-04-01T07:06:59;0.95;;;0.95;;
37657;SDS011;23500;53.268;8.308;2023-04-01T07:09:35;1.17;;;1.08;;
37657;SDS011;23500;53.268;8.308;2023-04-01T07:12:06;0.95;;;0.95;;
37657;SDS011;23500;53.268;8.308;2023-04-01T07:14:41;1.33;;;1.13;;
37657;SDS011;23500;53.268;8.308;2023-04-01T07:17:09;1.10;;;1.00;;
37657;SDS011;23500;53.268;8.308;2023-04-01T07:22:32;1.17;;;1.08;;
37657;SDS011;23500;53.268;8.308;2023-04-01T07:25:02;1.13;;;1.13;;
37657;SDS011;23500;53.268;8.308;2023-04-01T07:27:50;1.15;;;1.15;;
37657;SDS011;23500;53.268;8.308;2023-04-01T07:30:22;1.40;;;1.30;;
37657;SDS011;23500;53.268;8.308;2023-04-01T07:45:50;1.13;;;1.13;;
37657;SDS011;23500;53.268;8.308;2023-04-01T07:48:39;1.85;;;1.13;;
37657;SDS011;23500;53.268;8.308;2023-04-01T07:51:10;1.17;;;1.08;;
37657;SDS011;23500;53.268;8.308;2023-04-01T08:10:38;1.08;;;1.00;;
37657;SDS011;23500;53.268;8.308;2023-04-01T08:13:19;1.30;;;1.20;;
37657;SDS011;23500;53.268;8.308;2023-04-01T08:16:23;1.20;;;1.15;;
37657;SDS011;23500;53.268;8.308;2023-04-01T08:22:04;1.20;;;1.10;;
37657;SDS011;23500;53.268;8.308;2023-04-01T08:24:48;1.05;;;1.05;;
37657;SDS011;23500;53.268;8.308;2023-04-01T08:29:49;0.98;;;0.98;;
37657;SDS011;23500;53.268;8.308;2023-04-01T08:32:28;1.25;;;1.15;;
37657;SDS011;23500;53.268;8.308;2023-04-01T08:37:48;0.98;;;0.98;;
37657;SDS011;23500;53.268;8.308;2023-04-01T08:40:27;0.98;;;0.98;;
37657;SDS011;23500;53.268;8.308;2023-04-01T08:43:06;1.10;;;1.10;;
37657;SDS011;23500;53.268;8.308;2023-04-01T08:56:47;1.27;;;1.17;;
37657;SDS011;23500;53.268;8.308;2023-04-01T09:02:12;0.90;;;0.90;;
37657;SDS011;23500;53.268;8.308;2023-04-01T09:08:05;0.90;;;0.90;;
37657;SDS011;23500;53.268;8.308;2023-04-01T09:25:04;0.95;;;0.95;;
37657;SDS011;23500;53.268;8.308;2023-04-01T09:36:03;1.10;;;1.00;;
37657;SDS011;23500;53.268;8.308;2023-04-01T09:38:43;0.80;;;0.80;;
37657;SDS011;23500;53.268;8.308;2023-04-01T09:41:27;0.80;;;0.80;;
37657;SDS011;23500;53.268;8.308;2023-04-01T09:44:00;0.90;;;0.90;;
37657;SDS011;23500;53.268;8.308;2023-04-01T09:49:30;0.80;;;0.80;;
37657;SDS011;23500;53.268;8.308;2023-04-01T10:06:02;0.80;;;0.80;;
37657;SDS011;23500;53.268;8.308;2023-04-01T10:11:33;0.80;;;0.80;;
37657;SDS011;23500;53.268;8.308;2023-04-01T10:25:55;0.90;;;0.90;;
37657;SDS011;23500;53.268;8.308;2023-04-01T11:27:48;1.00;;;0.90;;
37657;SDS011;23500;53.268;8.308;2023-04-01T11:30:18;0.80;;;0.80;;
37657;SDS011;23500;53.268;8.308;2023-04-01T11:35:37;0.82;;;0.82;;
37657;SDS011;23500;53.268;8.308;2023-04-01T11:38:31;0.98;;;0.98;;
37657;SDS011;23500;53.268;8.308;2023-04-01T11:52:15;0.90;;;0.90;;
37657;SDS011;23500;53.268;8.308;2023-04-01T11:55:03;0.80;;;0.80;;
37657;SDS011;23500;53.268;8.308;2023-04-01T12:08:15;1.23;;;1.13;;
37657;SDS011;23500;53.268;8.308;2023-04-01T12:16:33;1.15;;;1.15;;
37657;SDS011;23500;53.268;8.308;2023-04-01T12:22:43;1.10;;;1.00;;
37657;SDS011;23500;53.268;8.308;2023-04-01T12:33:47;1.10;;;1.10;;
37657;SDS011;23500;53.268;8.308;2023-04-01T12:40:37;1.10;;;1.10;;
37657;SDS011;23500;53.268;8.308;2023-04-01T12:45:35;1.08;;;1.02;;
37657;SDS011;23500;53.268;8.308;2023-04-01T12:51:05;1.02;;;0.90;;
37657;SDS011;23500;53.268;8.308;2023-04-01T13:10:35;1.00;;;1.00;;
37657;SDS011;23500;53.268;8.308;2023-04-01T13:24:10;0.90;;;0.90;;
37657;SDS011;23500;53.268;8.308;2023-04-01T13:27:12;1.05;;;0.98;;
37657;SDS011;23500;53.268;8.308;2023-04-01T13:30:21;0.85;;;0.85;;
37657;SDS011;23500;53.268;8.308;2023-04-01T13:33:11;0.82;;;0.82;;
37657;SDS011;23500;53.268;8.308;2023-04-01T13:35:48;0.98;;;0.98;;
37657;SDS011;23500;53.268;8.308;2023-04-01T13:41:33;1.00;;;1.00;;
37657;SDS011;23500;53.268;8.308;2023-04-01T13:44:21;1.10;;;0.95;;
37657;SDS011;23500;53.268;8.308;2023-04-01T14:07:11;0.90;;;0.90;;
37657;SDS011;23500;53.268;8.308;2023-04-01T14:10:05;0.88;;;0.80;;
37657;SDS011;23500;53.268;8.308;2023-04-01T14:13:10;0.90;;;0.90;;
37657;SDS011;23500;53.268;8.308;2023-04-01T14:21:25;0.80;;;0.80;;
37657;SDS011;23500;53.268;8.308;2023-04-01T14:24:14;0.93;;;0.93;;
37657;SDS011;23500;53.268;8.308;2023-04-01T14:27:05;1.02;;;0.93;;
37657;SDS011;23500;53.268;8.308;2023-04-01T14:32:43;1.00;;;1.00;;
37657;SDS011;23500;53.268;8.308;2023-04-01T14:35:23;1.20;;;1.10;;
37657;SDS011;23500;53.268;8.308;2023-04-01T14:38:37;1.00;;;1.00;;
37657;SDS011;23500;53.268;8.308;2023-04-01T14:41:17;1.00;;;1.00;;
37657;SDS011;23500;53.268;8.308;2023-04-01T14:47:04;1.00;;;1.00;;
37657;SDS011;23500;53.268;8.308;2023-04-01T14:49:34;1.10;;;1.00;;
37657;SDS011;23500;53.268;8.308;2023-04-01T14:52:04;1.13;;;1.05;;
37657;SDS011;23500;53.268;8.308;2023-04-01T14:54:42;0.95;;;0.95;;
37657;SDS011;23500;53.268;8.308;2023-04-01T14:57:14;1.10;;;1.10;;
37657;SDS011;23500;53.268;8.308;2023-04-01T14:59:51;1.20;;;1.10;;
37657;SDS011;23500;53.268;8.308;2023-04-01T15:02:30;1.50;;;1.10;;
37657;SDS011;23500;53.268;8.308;2023-04-01T15:27:57;1.20;;;1.10;;
37657;SDS011;23500;53.268;8.308;2023-04-01T15:39:04;1.30;;;1.20;;
37657;SDS011;23500;53.268;8.308;2023-04-01T15:55:31;1.13;;;1.13;;
37657;SDS011;23500;53.268;8.308;2023-04-01T16:15:17;1.30;;;1.20;;
37657;SDS011;23500;53.268;8.308;2023-04-01T16:22:59;1.57;;;1.33;;
37657;SDS011;23500;53.268;8.308;2023-04-01T16:33:39;1.40;;;1.30;;
37657;SDS011;23500;53.268;8.308;2023-04-01T16:36:29;1.50;;;1.40;;
37657;SDS011;23500;53.268;8.308;2023-04-01T16:41:41;1.50;;;1.40;;
37657;SDS011;23500;53.268;8.308;2023-04-01T16:44:23;1.40;;;1.30;;
37657;SDS011;23500;53.268;8.308;2023-04-01T16:46:52;1.50;;;1.40;;
37657;SDS011;23500;53.268;8.308;2023-04-01T16:54:43;1.42;;;1.33;;
37657;SDS011;23500;53.268;8.308;2023-04-01T16:57:21;1.48;;;1.38;;
37657;SDS011;23500;53.268;8.308;2023-04-01T16:59:55;1.50;;;1.40;;
37657;SDS011;23500;53.268;8.308;2023-04-01T17:02:31;1.73;;;1.60;;
37657;SDS011;23500;53.268;8.308;2023-04-01T17:05:06;1.60;;;1.50;;
37657;SDS011;23500;53.268;8.308;2023-04-01T17:15:42;1.88;;;1.73;;
37657;SDS011;23500;53.268;8.308;2023-04-01T17:20:56;1.67;;;1.52;;
37657;SDS011;23500;53.268;8.308;2023-04-01T17:23:45;1.50;;;1.40;;
37657;SDS011;23500;53.268;8.308;2023-04-01T17:48:17;2.65;;;1.92;;
37657;SDS011;23500;53.268;8.308;2023-04-01T17:58:45;1.70;;;1.60;;
37657;SDS011;23500;53.268;8.308;2023-04-01T18:01:19;1.80;;;1.70;;
37657;SDS011;23500;53.268;8.308;2023-04-01T18:14:55;1.77;;;1.67;;
37657;SDS011;23500;53.268;8.308;2023-04-01T18:26:22;1.87;;;1.77;;
37657;SDS011;23500;53.268;8.308;2023-04-01T18:31:22;2.30;;;2.10;;
37657;SDS011;23500;53.268;8.308;2023-04-01T18:36:51;1.73;;;1.60;;
37657;SDS011;23500;53.268;8.308;2023-04-01T18:39:32;1.80;;;1.70;;
37657;SDS011;23500;53.268;8.308;2023-04-01T18:42:00;1.83;;;1.70;;
37657;SDS011;23500;53.268;8.308;2023-04-01T18:44:38;2.07;;;1.93;;
37657;SDS011;23500;53.268;8.308;2023-04-01T18:50:13;2.10;;;1.90;;
37657;SDS011;23500;53.268;8.308;2023-04-01T18:52:51;2.00;;;1.90;;
37657;SDS011;23500;53.268;8.308;2023-04-01T18:55:31;2.20;;;2.00;;
37657;SDS011;23500;53.268;8.308;2023-04-01T18:58:06;2.20;;;2.00;;
37657;SDS011;23500;53.268;8.308;2023-04-01T19:00:38;2.23;;;2.03;;
37657;SDS011;23500;53.268;8.308;2023-04-01T19:03:21;2.20;;;2.00;;
37657;SDS011;23500;53.268;8.308;2023-04-01T19:05:56;2.00;;;1.90;;
37657;SDS011;23500;53.268;8.308;2023-04-01T19:08:38;2.00;;;1.80;;
37657;SDS011;23500;53.268;8.308;2023-04-01T19:28:02;2.20;;;2.00;;
37657;SDS011;23500;53.268;8.308;2023-04-01T19:30:53;2.00;;;1.83;;
37657;SDS011;23500;53.268;8.308;2023-04-01T19:33:28;1.83;;;1.73;;
37657;SDS011;23500;53.268;8.308;2023-04-01T19:39:09;2.43;;;2.23;;
37657;SDS011;23500;53.268;8.308;2023-04-01T19:41:52;2.50;;;2.30;;
37657;SDS011;23500;53.268;8.308;2023-04-01T19:58:33;2.10;;;1.90;;
37657;SDS011;23500;53.268;8.308;2023-04-01T20:01:15;2.10;;;2.00;;
37657;SDS011;23500;53.268;8.308;2023-04-01T20:03:54;2.40;;;2.20;;
37657;SDS011;23500;53.268;8.308;2023-04-01T20:06:26;2.30;;;2.10;;
37657;SDS011;23500;53.268;8.308;2023-04-01T20:19:41;2.17;;;2.07;;
37657;SDS011;23500;53.268;8.308;2023-04-01T20:22:28;2.25;;;2.05;;
37657;SDS011;23500;53.268;8.308;2023-04-01T20:36:05;2.37;;;2.17;;
37657;SDS011;23500;53.268;8.308;2023-04-01T20:44:33;2.07;;;1.87;;
37657;SDS011;23500;53.268;8.308;2023-04-01T20:50:06;2.37;;;2.17;;
37657;SDS011;23500;53.268;8.308;2023-04-01T20:53:05;2.47;;;1.80;;
37657;SDS011;23500;53.268;8.308;2023-04-01T20:56:14;2.57;;;2.30;;
37657;SDS011;23500;53.268;8.308;2023-04-01T21:07:14;2.40;;;2.20;;
37657;SDS011;23500;53.268;8.308;2023-04-01T21:09:48;1.97;;;1.87;;
37657;SDS011;23500;53.268;8.308;2023-04-01T21:12:50;2.20;;;2.00;;
37657;SDS011;23500;53.268;8.308;2023-04-01T21:15:34;2.40;;;2.20;;
37657;SDS011;23500;53.268;8.308;2023-04-01T21:20:49;2.30;;;2.10;;
37657;SDS011;23500;53.268;8.308;2023-04-01T21:25:58;2.50;;;2.30;;
37657;SDS011;23500;53.268;8.308;2023-04-01T21:39:49;2.40;;;2.20;;
37657;SDS011;23500;53.268;8.308;2023-04-01T22:03:27;2.17;;;2.00;;
37657;SDS011;23500;53.268;8.308;2023-04-01T22:06:14;2.17;;;1.80;;
37657;SDS011;23500;53.268;8.308;2023-04-01T22:14:15;2.37;;;2.17;;
37657;SDS011;23500;53.268;8.308;2023-04-01T22:17:30;2.87;;;2.03;;
37657;SDS011;23500;53.268;8.308;2023-04-01T22:28:24;2.40;;;2.20;;
37657;SDS011;23500;53.268;8.308;2023-04-01T22:31:00;2.43;;;2.23;;
37657;SDS011;23500;53.268;8.308;2023-04-01T22:43:55;2.30;;;2.10;;
37657;SDS011;23500;53.268;8.308;2023-04-01T22:49:14;2.17;;;1.97;;
37657;SDS011;23500;53.268;8.308;2023-04-01T22:51:53;2.30;;;2.10;;
37657;SDS011;23500;53.268;8.308;2023-04-01T22:54:34;3.17;;;1.97;;
37657;SDS011;23500;53.268;8.308;2023-04-01T22:57:40;2.23;;;2.03;;
37657;SDS011;23500;53.268;8.308;2023-04-01T23:03:20;2.33;;;2.13;;
37657;SDS011;23500;53.268;8.308;2023-04-01T23:05:51;2.20;;;2.00;;
37657;SDS011;23500;53.268;8.308;2023-04-01T23:08:29;2.60;;;1.93;;
37657;SDS011;23500;53.268;8.308;2023-04-01T23:16:31;2.10;;;1.90;;
37657;SDS011;23500;53.268;8.308;2023-04-01T23:19:19;2.40;;;2.20;;
37657;SDS011;23500;53.268;8.308;2023-04-01T23:22:34;2.30;;;2.10;;
37657;SDS011;23500;53.268;8.308;2023-04-01T23:27:23;2.30;;;2.10;;
37657;SDS011;23500;53.268;8.308;2023-04-01T23:33:13;2.13;;;1.97;;
37657;SDS011;23500;53.268;8.308;2023-04-01T23:35:48;2.40;;;2.20;;
37657;SDS011;23500;53.268;8.308;2023-04-01T23:38:16;2.13;;;1.93;;
37657;SDS011;23500;53.268;8.308;2023-04-01T23:40:43;2.77;;;2.30;;
37657;SDS011;23500;53.268;8.308;2023-04-01T23:43:52;2.17;;;1.97;;
37657;SDS011;23500;53.268;8.308;2023-04-01T23:46:02;2.47;;;2.27;;
37657;SDS011;23500;53.268;8.308;2023-04-01T23:48:36;2.20;;;2.00;;
37657;SDS011;23500;53.268;8.308;2023-04-01T23:53:44;2.40;;;2.20;;
37657;SDS011;23500;53.268;8.308;2023-04-01T23:56:12;2.37;;;2.00;;
37657;SDS011;23500;53.268;8.308;2023-04-01T23:58:45;2.40;;;2.20;;
